Time;durP1;ratioP1;P1;durP2;ratioP2;P2;SDS_P1;SDS_P2;PMS_P1;PMS_P2;Temp;Humidity;BMP_temperature;BMP_pressure;BME280_temperature;BME280_humidity;BME280_pressure;Samples;Min_cycle;Max_cycle;Signal;HPM_P1;HPM_P2
2024/04/06 00:02:21;;;;;;;6.18;2.45;;;;;;;10.10;100.00;97261.94;5029641;28;20041;-65
2024/04/06 00:04:47;;;;;;;5.30;3.00;;;;;;;10.07;100.00;97260.56;5026766;28;20052;-65
2024/04/06 00:07:12;;;;;;;6.30;2.45;;;;;;;9.95;100.00;97257.16;5019979;28;20081;-65
2024/04/06 00:09:38;;;;;;;7.85;2.17;;;;;;;9.94;100.00;97252.78;5035305;28;20037;-65
2024/04/06 00:12:05;;;;;;;5.32;2.35;;;;;;;10.17;100.00;97249.03;5033707;28;20046;-65
2024/04/06 00:14:31;;;;;;;5.60;2.40;;;;;;;10.38;100.00;97257.38;5035287;28;20045;-65
2024/04/06 00:16:57;;;;;;;4.00;1.90;;;;;;;10.39;100.00;97242.78;5025539;28;20050;-65
2024/04/06 00:19:22;;;;;;;6.75;2.70;;;;;;;10.46;100.00;97238.00;5022693;28;20049;-66
2024/04/06 00:21:48;;;;;;;7.15;1.95;;;;;;;10.52;100.00;97245.13;5010120;28;20041;-65
2024/04/06 00:24:14;;;;;;;4.47;2.13;;;;;;;10.53;100.00;97251.34;5022970;28;20148;-66
2024/04/06 00:26:40;;;;;;;6.43;2.10;;;;;;;10.47;100.00;97252.38;5028932;28;20654;-65
2024/04/06 00:29:05;;;;;;;5.45;2.33;;;;;;;10.33;100.00;97251.91;5027978;28;20056;-65
2024/04/06 00:31:31;;;;;;;6.35;2.15;;;;;;;10.14;100.00;97263.06;5033250;28;20136;-64
2024/04/06 00:34:01;;;;;;;7.25;2.22;;;;;;;10.01;100.00;97267.78;5028257;28;20038;-67
2024/04/06 00:36:28;;;;;;;3.75;1.80;;;;;;;9.90;100.00;97284.94;5036032;28;20029;-66
2024/04/06 00:38:54;;;;;;;5.45;2.15;;;;;;;9.72;100.00;97281.47;5018317;28;20049;-65
2024/04/06 00:41:20;;;;;;;4.90;1.98;;;;;;;9.54;100.00;97285.25;5018742;28;20053;-66
2024/04/06 00:43:46;;;;;;;3.90;1.70;;;;;;;9.42;100.00;97282.66;5027002;28;20171;-65
2024/04/06 00:46:11;;;;;;;5.22;1.63;;;;;;;9.56;100.00;97285.00;5021097;28;20037;-65
2024/04/06 00:48:37;;;;;;;5.53;1.52;;;;;;;9.74;100.00;97281.22;5025727;28;20672;-65
2024/04/06 00:51:06;;;;;;;3.38;1.75;;;;;;;9.77;100.00;97283.44;5020549;28;20050;-64
2024/04/06 00:53:32;;;;;;;3.53;1.58;;;;;;;9.63;100.00;97291.06;5022002;28;20099;-66
2024/04/06 00:55:59;;;;;;;4.85;1.70;;;;;;;9.56;100.00;97295.81;5020836;28;20056;-66
2024/04/06 00:58:25;;;;;;;3.33;1.42;;;;;;;9.43;100.00;97296.97;5031851;28;20045;-65
2024/04/06 01:00:51;;;;;;;4.22;2.08;;;;;;;9.41;100.00;97296.41;5036603;28;20662;-65
2024/04/06 01:03:17;;;;;;;4.78;1.70;;;;;;;9.34;100.00;97299.25;5020813;28;20141;-65
2024/04/06 01:05:43;;;;;;;7.05;1.40;;;;;;;9.22;100.00;97291.25;5025660;28;20484;-64
2024/04/06 01:08:08;;;;;;;5.45;1.65;;;;;;;9.27;100.00;97301.31;5025803;28;20396;-65
2024/04/06 01:10:34;;;;;;;3.72;1.50;;;;;;;9.23;100.00;97293.72;5024024;28;20044;-65
2024/04/06 01:13:00;;;;;;;4.57;1.80;;;;;;;9.27;100.00;97293.19;5020460;28;20136;-66
2024/04/06 01:15:25;;;;;;;3.45;1.63;;;;;;;9.23;100.00;97292.88;5030810;28;20725;-66
2024/04/06 01:17:53;;;;;;;4.97;1.60;;;;;;;9.21;100.00;97286.88;5019528;28;20532;-66
2024/04/06 01:20:19;;;;;;;3.05;1.45;;;;;;;9.14;100.00;97283.53;5023357;28;20049;-66
2024/04/06 01:22:46;;;;;;;5.78;1.60;;;;;;;9.09;100.00;97285.09;5020243;28;20044;-66
2024/04/06 01:25:12;;;;;;;4.32;1.75;;;;;;;9.08;100.00;97285.34;5027641;28;20037;-66
2024/04/06 01:27:38;;;;;;;4.18;1.73;;;;;;;9.03;100.00;97279.84;5029342;28;20157;-66
2024/04/06 01:30:05;;;;;;;4.65;2.03;;;;;;;9.03;100.00;97279.84;5037713;28;20123;-65
2024/04/06 01:32:30;;;;;;;2.40;1.40;;;;;;;9.11;100.00;97285.66;5012002;28;20045;-65
2024/04/06 01:34:56;;;;;;;4.60;1.67;;;;;;;9.17;100.00;97283.88;5027258;28;20083;-66
2024/04/06 01:37:22;;;;;;;4.82;2.38;;;;;;;9.02;100.00;97292.53;5028704;28;20037;-66
2024/04/06 01:39:47;;;;;;;6.40;3.33;;;;;;;9.04;100.00;97293.13;5033702;28;20093;-65
2024/04/06 01:42:13;;;;;;;5.30;2.80;;;;;;;9.01;100.00;97292.78;5028731;28;20408;-64
2024/04/06 01:44:38;;;;;;;6.97;3.47;;;;;;;9.00;100.00;97293.84;5032704;28;20087;-65
2024/04/06 01:47:04;;;;;;;9.80;3.83;;;;;;;9.01;100.00;97298.16;5026978;28;20044;-65
2024/04/06 01:49:30;;;;;;;8.10;4.13;;;;;;;9.06;100.00;97290.16;5030867;28;20049;-64
2024/04/06 01:51:56;;;;;;;10.15;4.60;;;;;;;8.99;100.00;97290.31;5018507;28;20140;-64
2024/04/06 01:54:21;;;;;;;8.30;3.88;;;;;;;8.96;100.00;97283.50;5030416;28;20752;-64
2024/04/06 01:56:47;;;;;;;5.75;3.67;;;;;;;8.93;100.00;97286.72;5034148;28;20057;-65
2024/04/06 01:59:12;;;;;;;7.95;3.55;;;;;;;8.91;100.00;97291.53;5029677;28;20046;-66
2024/04/06 02:01:38;;;;;;;7.55;3.95;;;;;;;8.85;100.00;97285.22;5024336;28;20041;-65
2024/04/06 02:04:03;;;;;;;7.93;4.28;;;;;;;8.83;100.00;97286.53;5027530;28;20037;-64
2024/04/06 02:06:29;;;;;;;9.80;4.35;;;;;;;8.84;100.00;97280.88;5043620;28;20032;-66
2024/04/06 02:08:54;;;;;;;9.13;4.22;;;;;;;8.80;100.00;97282.44;5031508;28;20123;-66
2024/04/06 02:11:20;;;;;;;8.65;3.97;;;;;;;8.87;100.00;97278.75;5038157;28;20179;-66
2024/04/06 02:13:45;;;;;;;8.73;3.97;;;;;;;8.85;100.00;97282.53;5031744;28;20041;-66
2024/04/06 02:16:11;;;;;;;7.50;3.67;;;;;;;8.83;100.00;97281.97;5024955;28;20516;-67
2024/04/06 02:18:37;;;;;;;9.10;3.55;;;;;;;8.83;100.00;97279.25;5023330;28;20516;-67
2024/04/06 02:21:03;;;;;;;10.18;4.18;;;;;;;8.83;100.00;97273.03;5038820;28;20455;-66
2024/04/06 02:23:28;;;;;;;9.52;4.30;;;;;;;8.79;100.00;97278.09;5037720;28;20120;-66
2024/04/06 02:25:54;;;;;;;9.52;4.25;;;;;;;8.82;100.00;97266.78;5041055;28;20037;-66
2024/04/06 02:28:19;;;;;;;10.55;5.75;;;;;;;8.81;100.00;97262.47;5022105;28;20073;-66
2024/04/06 02:30:46;;;;;;;9.70;4.63;;;;;;;8.82;100.00;97266.00;5025180;28;20072;-67
2024/04/06 02:33:12;;;;;;;13.55;4.75;;;;;;;8.86;100.00;97259.06;5031981;28;20520;-67
2024/04/06 02:35:37;;;;;;;10.00;4.82;;;;;;;8.89;100.00;97260.44;5037650;28;20045;-65
2024/04/06 02:38:03;;;;;;;12.38;5.57;;;;;;;8.89;100.00;97255.88;5032954;28;20052;-66
2024/04/06 02:40:29;;;;;;;12.18;5.18;;;;;;;8.90;100.00;97252.09;5032605;28;20049;-66
2024/04/06 02:42:54;;;;;;;9.65;4.13;;;;;;;8.91;100.00;97258.31;5021458;28;20121;-65
2024/04/06 02:45:20;;;;;;;7.63;3.28;;;;;;;8.86;100.00;97256.34;5022995;28;20050;-66
2024/04/06 02:47:45;;;;;;;9.38;3.60;;;;;;;8.85;100.00;97252.03;5027762;28;20036;-66
2024/04/06 02:50:11;;;;;;;5.68;2.55;;;;;;;8.80;100.00;97250.03;5030882;28;20052;-66
2024/04/06 02:52:36;;;;;;;8.35;3.38;;;;;;;8.84;100.00;97244.97;5025261;28;20049;-65
2024/04/06 02:55:05;;;;;;;3.95;2.20;;;;;;;8.85;100.00;97254.72;5034615;28;20041;-65
2024/04/06 02:57:31;;;;;;;4.85;2.35;;;;;;;8.80;100.00;97258.13;5028274;28;20037;-66
2024/04/06 02:59:56;;;;;;;4.28;2.17;;;;;;;8.86;100.00;97256.34;5029931;28;20125;-65
2024/04/06 03:02:22;;;;;;;3.35;1.90;;;;;;;8.98;100.00;97259.81;5027559;28;20049;-65
2024/04/06 03:04:48;;;;;;;3.92;1.63;;;;;;;9.07;100.00;97262.09;5034122;28;20095;-66
2024/04/06 03:07:14;;;;;;;2.90;1.45;;;;;;;9.21;100.00;97270.69;5026822;28;20116;-66
2024/04/06 03:09:40;;;;;;;5.05;1.50;;;;;;;9.33;100.00;97271.41;5035449;28;20037;-67
2024/04/06 03:12:06;;;;;;;5.28;1.85;;;;;;;9.42;100.00;97277.25;5021296;28;20049;-66
2024/04/06 03:14:32;;;;;;;3.67;1.95;;;;;;;9.45;100.00;97282.16;5029347;28;20038;-66
2024/04/06 03:16:58;;;;;;;3.65;1.60;;;;;;;9.42;100.00;97271.84;5021389;28;20045;-66
2024/04/06 03:19:24;;;;;;;2.90;1.30;;;;;;;9.50;100.00;97274.13;5028954;28;20044;-66
2024/04/06 03:21:50;;;;;;;4.75;1.60;;;;;;;9.55;100.00;97276.06;5034025;28;20547;-65
2024/04/06 03:24:16;;;;;;;3.20;1.50;;;;;;;9.51;100.00;97266.81;5029465;28;20046;-66
2024/04/06 03:26:43;;;;;;;4.60;1.70;;;;;;;9.43;100.00;97270.75;5021494;28;20694;-65
2024/04/06 03:29:08;;;;;;;6.25;2.03;;;;;;;9.33;100.00;97276.81;5026325;28;21005;-66
2024/04/06 03:31:34;;;;;;;4.22;1.70;;;;;;;9.21;100.00;97274.22;5024854;28;20041;-66
2024/04/06 03:33:59;;;;;;;5.05;2.08;;;;;;;9.21;100.00;97270.69;5035788;28;20490;-66
2024/04/06 03:36:25;;;;;;;2.40;1.40;;;;;;;9.09;100.00;97265.34;5035686;28;20076;-66
2024/04/06 03:38:51;;;;;;;3.75;1.50;;;;;;;9.01;100.00;97261.19;5023193;28;20145;-66
2024/04/06 03:41:17;;;;;;;5.40;1.70;;;;;;;8.94;100.00;97266.75;5022210;28;20049;-66
2024/04/06 03:43:42;;;;;;;6.22;1.90;;;;;;;8.96;100.00;97255.72;5031191;28;20045;-66
2024/04/06 03:46:08;;;;;;;4.15;1.65;;;;;;;8.87;100.00;97257.97;5023917;28;20087;-67
2024/04/06 03:48:33;;;;;;;4.20;1.73;;;;;;;8.80;100.00;97255.44;5015289;28;20037;-66
2024/04/06 03:50:59;;;;;;;4.15;1.60;;;;;;;8.87;100.00;97266.09;5038827;28;20687;-66
2024/04/06 03:53:38;;;;;;;3.15;1.50;;;;;;;8.92;100.00;97265.38;5014490;28;20042;-66
2024/04/06 03:56:04;;;;;;;3.30;1.40;;;;;;;9.00;100.00;97267.66;5022598;28;20041;-66
2024/04/06 03:58:30;;;;;;;2.60;1.30;;;;;;;9.05;100.00;97270.44;5018974;28;20041;-66
2024/04/06 04:00:55;;;;;;;7.90;1.70;;;;;;;9.04;100.00;97271.50;5024248;28;20053;-66
2024/04/06 04:03:22;;;;;;;4.22;1.60;;;;;;;9.10;100.00;97272.41;5035830;28;20037;-65
2024/04/06 04:05:48;;;;;;;5.35;1.50;;;;;;;9.05;100.00;97275.84;5021778;28;20052;-66
2024/04/06 04:08:14;;;;;;;2.35;1.40;;;;;;;9.10;100.00;97267.00;5028094;28;20033;-66
2024/04/06 04:10:39;;;;;;;4.80;2.03;;;;;;;9.08;100.00;97267.25;5038930;28;20086;-66
2024/04/06 04:13:09;;;;;;;5.22;2.15;;;;;;;9.04;100.00;97259.88;5021155;28;20041;-65
2024/04/06 04:15:39;;;;;;;4.05;2.50;;;;;;;8.99;100.00;97257.91;5022801;28;20405;-66
2024/04/06 04:18:06;;;;;;;5.60;2.00;;;;;;;8.98;100.00;97253.56;5032003;28;20033;-66
2024/04/06 04:20:32;;;;;;;5.32;2.22;;;;;;;8.93;100.00;97267.81;5029957;28;20064;-65
2024/04/06 04:23:00;;;;;;;4.22;2.10;;;;;;;8.90;100.00;97275.56;5032002;28;20054;-65
2024/04/06 04:25:27;;;;;;;4.22;1.80;;;;;;;8.78;100.00;97278.34;5026952;28;20040;-66
2024/04/06 04:27:54;;;;;;;3.67;2.05;;;;;;;8.51;100.00;97281.59;5024903;28;20060;-66
2024/04/06 04:30:20;;;;;;;4.30;1.65;;;;;;;8.30;100.00;97279.31;5033928;28;20099;-65
2024/04/06 04:32:45;;;;;;;5.70;2.28;;;;;;;8.15;100.00;97271.72;5026280;28;20041;-66
2024/04/06 04:35:11;;;;;;;3.15;1.63;;;;;;;8.06;100.00;97281.25;5025626;28;20037;-66
2024/04/06 04:37:37;;;;;;;4.53;2.03;;;;;;;7.85;100.00;97278.13;5027889;28;20068;-66
2024/04/06 04:40:02;;;;;;;3.97;1.73;;;;;;;7.78;100.00;97282.84;5030158;28;20037;-65
2024/04/06 04:42:28;;;;;;;3.80;1.73;;;;;;;7.75;100.00;97277.91;5022011;28;20048;-65
2024/04/06 04:45:00;;;;;;;5.38;1.70;;;;;;;7.69;100.00;97285.06;5028876;28;20508;-65
2024/04/06 04:47:26;;;;;;;3.55;1.85;;;;;;;7.68;100.00;97286.13;5025990;28;20426;-65
2024/04/06 04:49:51;;;;;;;7.05;2.22;;;;;;;7.61;100.00;97288.94;5016632;28;20527;-66
2024/04/06 04:52:17;;;;;;;4.22;1.90;;;;;;;7.57;100.00;97287.75;5012782;28;20045;-66
2024/04/06 04:54:42;;;;;;;5.47;2.38;;;;;;;7.65;100.00;97287.41;5024824;28;20562;-65
2024/04/06 04:57:08;;;;;;;3.75;1.83;;;;;;;7.75;100.00;97280.59;5017387;28;20042;-65
2024/04/06 04:59:34;;;;;;;5.82;1.85;;;;;;;7.90;100.00;97282.81;5028688;28;20222;-66
2024/04/06 05:01:59;;;;;;;3.88;1.67;;;;;;;8.41;100.00;97282.22;5019659;28;20049;-66
2024/04/06 05:04:25;;;;;;;4.38;1.60;;;;;;;9.02;100.00;97289.00;5031028;28;20077;-65
2024/04/06 05:06:50;;;;;;;6.53;2.00;;;;;;;9.39;100.00;97293.94;5023579;28;20080;-66
2024/04/06 05:09:16;;;;;;;3.03;1.50;;;;;;;9.61;100.00;97282.38;5027115;28;20084;-67
2024/04/06 05:11:42;;;;;;;8.70;1.90;;;;;;;9.71;100.00;97290.66;5021908;28;20132;-66
2024/04/06 05:14:08;;;;;;;4.60;1.77;;;;;;;9.84;100.00;97291.38;5030186;28;20033;-66
2024/04/06 05:16:33;;;;;;;4.65;2.15;;;;;;;9.92;100.00;97287.41;5029261;28;20111;-66
2024/04/06 05:18:59;;;;;;;6.18;2.08;;;;;;;9.89;100.00;97289.53;5036716;28;20558;-65
2024/04/06 05:21:24;;;;;;;3.67;1.90;;;;;;;9.91;100.00;97289.28;5019972;28;20085;-66
2024/04/06 05:23:50;;;;;;;3.22;1.50;;;;;;;10.01;100.00;97286.72;5025525;28;20459;-65
2024/04/06 05:26:16;;;;;;;2.75;1.48;;;;;;;10.09;100.00;97296.28;5023140;28;20049;-65
2024/04/06 05:28:41;;;;;;;4.00;1.63;;;;;;;10.17;100.00;97305.03;5018266;28;20637;-65
2024/04/06 05:31:07;;;;;;;3.60;1.40;;;;;;;10.27;100.00;97306.00;5016705;28;20050;-66
2024/04/06 05:33:32;;;;;;;3.65;2.03;;;;;;;10.50;100.00;97304.13;5022245;28;20049;-66
2024/04/06 05:35:59;;;;;;;5.65;2.22;;;;;;;10.65;100.00;97305.38;5026565;28;20087;-66
2024/04/06 05:38:25;;;;;;;2.85;1.20;;;;;;;10.80;100.00;97308.22;5029197;28;20517;-66
2024/04/06 05:40:52;;;;;;;3.65;1.38;;;;;;;10.99;100.00;97305.16;5029049;28;20667;-66
2024/04/06 05:43:18;;;;;;;3.58;1.55;;;;;;;11.22;100.00;97305.91;5018813;28;20041;-66
2024/04/06 05:45:43;;;;;;;2.47;1.08;;;;;;;11.41;100.00;97317.19;5021184;28;20185;-65
2024/04/06 05:48:09;;;;;;;4.57;1.13;;;;;;;11.58;100.00;97313.53;5028051;28;20149;-66
2024/04/06 05:50:36;;;;;;;2.92;1.23;;;;;;;11.74;100.00;97317.16;5021816;28;20610;-66
2024/04/06 05:53:04;;;;;;;2.65;1.13;;;;;;;11.93;100.00;97311.28;5032109;28;20045;-65
2024/04/06 05:55:32;;;;;;;2.40;1.15;;;;;;;11.99;100.00;97309.44;5020882;28;20647;-65
2024/04/06 05:57:58;;;;;;;3.03;1.63;;;;;;;11.96;100.00;97305.34;5022917;28;20045;-66
2024/04/06 06:00:24;;;;;;;3.03;1.00;;;;;;;11.98;100.00;97311.34;5019271;28;20666;-65
2024/04/06 06:02:52;;;;;;;3.85;1.60;;;;;;;11.96;100.00;97303.47;5028380;28;20056;-66
2024/04/06 06:05:19;;;;;;;4.50;2.10;;;;;;;12.01;100.00;97302.66;5028931;28;20046;-65
2024/04/06 06:07:45;;;;;;;4.00;1.25;;;;;;;12.13;100.00;97309.81;5023708;28;20030;-65
2024/04/06 06:10:11;;;;;;;4.97;1.40;;;;;;;12.24;100.00;97306.09;5028363;28;20067;-65
2024/04/06 06:12:36;;;;;;;5.20;1.27;;;;;;;12.37;100.00;97307.47;5023557;28;20681;-66
2024/04/06 06:15:03;;;;;;;4.43;1.48;;;;;;;12.42;100.00;97304.78;5025343;28;20041;-65
2024/04/06 06:17:28;;;;;;;4.18;1.40;;;;;;;12.53;100.00;97302.13;5025886;28;20045;-66
2024/04/06 06:19:54;;;;;;;3.53;1.10;;;;;;;12.72;100.00;97295.09;5022365;28;20566;-66
2024/04/06 06:22:19;;;;;;;4.22;1.30;;;;;;;12.85;100.00;97304.66;5026874;28;20041;-66
2024/04/06 06:24:45;;;;;;;2.13;1.00;;;;;;;12.95;100.00;97311.19;5023678;28;20042;-66
2024/04/06 06:27:10;;;;;;;3.22;0.98;;;;;;;13.09;100.00;97309.56;5019656;28;20095;-66
2024/04/06 06:29:36;;;;;;;6.03;1.85;;;;;;;13.12;100.00;97311.75;5025923;28;20069;-66
2024/04/06 06:32:02;;;;;;;2.47;1.00;;;;;;;13.22;100.00;97319.09;5034025;28;20412;-66
2024/04/06 06:34:29;;;;;;;3.80;1.20;;;;;;;13.31;100.00;97321.28;5021014;28;20504;-67
2024/04/06 06:36:54;;;;;;;3.88;0.93;;;;;;;13.43;100.00;97318.28;5028359;28;20052;-65
2024/04/06 06:39:20;;;;;;;2.15;0.85;;;;;;;13.51;100.00;97331.38;5029570;28;20132;-66
2024/04/06 06:41:46;;;;;;;4.95;1.05;;;;;;;13.56;100.00;97333.28;5029211;28;20038;-66
2024/04/06 06:44:11;;;;;;;3.83;1.20;;;;;;;13.57;100.00;97332.19;5037775;28;20523;-66
2024/04/06 06:46:37;;;;;;;3.20;1.10;;;;;;;13.56;100.00;97336.03;5020269;28;20888;-66
2024/04/06 06:49:02;;;;;;;3.17;1.40;;;;;;;13.55;100.00;97337.09;5023386;28;20041;-66
2024/04/06 06:51:28;;;;;;;3.80;1.23;;;;;;;13.55;100.00;97337.09;5016545;28;20037;-66
2024/04/06 06:53:53;;;;;;;5.07;1.88;;;;;;;13.55;100.00;97335.19;5025309;28;20049;-66
2024/04/06 06:56:22;;;;;;;5.15;1.27;;;;;;;13.53;100.00;97334.66;5023479;28;20583;-66
2024/04/06 06:58:49;;;;;;;3.47;1.48;;;;;;;13.59;100.00;97332.72;5025016;28;20527;-66
2024/04/06 07:01:14;;;;;;;3.17;1.15;;;;;;;13.68;100.00;97341.19;5024780;28;20812;-66
2024/04/06 07:03:40;;;;;;;2.78;1.40;;;;;;;13.82;100.00;97342.25;5021502;28;20166;-66
2024/04/06 07:06:08;;;;;;;3.05;1.42;;;;;;;13.88;100.00;97343.88;5002033;28;20120;-65
2024/04/06 07:08:33;;;;;;;5.97;1.23;;;;;;;13.92;100.00;97346.84;5030316;28;20516;-65
2024/04/06 07:11:03;;;;;;;4.13;1.58;;;;;;;13.95;100.00;97345.50;5026148;28;20051;-65
2024/04/06 07:13:29;;;;;;;3.13;1.30;;;;;;;14.02;100.00;97340.59;5020193;28;20045;-65
2024/04/06 07:16:05;;;;;;;2.50;1.15;;;;;;;14.17;100.00;97342.47;5023260;28;20041;-66
2024/04/06 07:18:31;;;;;;;4.25;1.50;;;;;;;14.27;100.00;97331.53;5021463;28;20037;-65
2024/04/06 07:20:57;;;;;;;4.65;1.17;;;;;;;14.29;100.00;97326.63;5022659;28;20108;-65
2024/04/06 07:23:23;;;;;;;3.03;1.50;;;;;;;14.57;100.00;97337.16;5026128;28;20048;-65
2024/04/06 07:25:49;;;;;;;6.30;1.40;;;;;;;14.68;100.00;97338.72;5022152;28;20591;-64
2024/04/06 07:28:16;;;;;;;3.88;1.10;;;;;;;14.94;100.00;97344.09;5021674;28;20045;-64
2024/04/06 07:30:43;;;;;;;2.47;1.10;;;;;;;15.04;100.00;97345.94;5018781;28;20038;-65
2024/04/06 07:33:08;;;;;;;2.88;1.40;;;;;;;15.18;100.00;97358.94;5018291;28;20465;-66
2024/04/06 07:35:34;;;;;;;2.85;1.00;;;;;;;15.30;100.00;97356.69;5021664;28;20489;-66
2024/04/06 07:37:59;;;;;;;8.80;2.00;;;;;;;15.49;100.00;97364.19;5030916;28;20065;-66
2024/04/06 07:40:25;;;;;;;3.10;1.10;;;;;;;15.57;100.00;97349.94;5028282;28;20086;-65
2024/04/06 07:42:52;;;;;;;2.72;0.95;;;;;;;15.69;100.00;97348.75;5025121;28;20092;-65
2024/04/06 07:45:17;;;;;;;3.17;0.95;;;;;;;15.77;100.00;97348.13;5015967;28;20092;-65
2024/04/06 07:47:43;;;;;;;2.72;1.13;;;;;;;15.79;100.00;97350.56;5017604;28;20034;-65
2024/04/06 07:50:08;;;;;;;6.03;1.15;;;;;;;15.83;100.00;97341.53;5019082;28;20052;-65
2024/04/06 07:52:34;;;;;;;6.22;1.30;;;;;;;15.93;100.00;97354.28;5019825;28;20395;-66
2024/04/06 07:55:00;;;;;;;2.30;1.00;;;;;;;16.05;100.00;97348.47;5023647;28;20049;-65
2024/04/06 07:57:27;;;;;;;2.97;1.10;;;;;;;16.22;100.00;97358.13;5026347;28;20038;-66
2024/04/06 07:59:55;;;;;;;2.72;1.10;;;;;;;16.35;100.00;97356.59;5019911;28;20609;-66
2024/04/06 08:02:21;;;;;;;3.97;1.38;;;;;;;16.45;100.00;97356.50;5019501;28;20045;-67
2024/04/06 08:04:47;;;;;;;2.72;1.10;;;;;;;16.53;100.00;97363.25;5024595;28;20103;-66
2024/04/06 08:07:13;;;;;;;3.88;1.30;;;;;;;16.56;100.00;97361.84;5024926;28;20052;-66
2024/04/06 08:09:38;;;;;;;4.05;1.20;;;;;;;16.62;100.00;97366.16;5023945;28;20038;-66
2024/04/06 08:12:04;;;;;;;3.58;1.10;;;;;;;16.76;99.34;97364.34;5013895;28;20466;-66
2024/04/06 08:14:30;;;;;;;1.83;0.85;;;;;;;16.86;98.82;97362.56;5017278;28;20069;-66
2024/04/06 08:16:56;;;;;;;2.05;0.80;;;;;;;16.93;97.94;97364.94;5024848;28;20045;-66
2024/04/06 08:19:21;;;;;;;2.67;0.80;;;;;;;17.01;97.77;97353.34;5029729;28;20123;-66
2024/04/06 08:21:47;;;;;;;2.55;1.25;;;;;;;17.15;99.23;97348.00;5029704;28;20048;-66
2024/04/06 08:24:12;;;;;;;3.58;1.15;;;;;;;17.13;98.26;97342.81;5021450;28;20045;-66
2024/04/06 08:26:38;;;;;;;3.20;1.20;;;;;;;17.12;98.69;97338.47;5019779;28;20124;-65
2024/04/06 08:29:04;;;;;;;3.20;1.42;;;;;;;17.16;96.08;97341.41;5022596;28;20704;-65
2024/04/06 08:31:29;;;;;;;2.25;1.10;;;;;;;17.26;97.00;97334.97;5020776;28;20056;-65
2024/04/06 08:33:55;;;;;;;2.08;0.95;;;;;;;17.37;95.83;97336.44;5022337;28;20064;-65
2024/04/06 08:36:20;;;;;;;1.95;1.08;;;;;;;17.50;93.39;97334.88;5015860;28;20493;-66
2024/04/06 08:38:46;;;;;;;5.50;1.30;;;;;;;17.59;93.59;97343.22;5022774;28;20608;-65
2024/04/06 08:41:12;;;;;;;2.85;1.17;;;;;;;17.91;92.17;97346.25;5017700;28;20124;-65
2024/04/06 08:43:44;;;;;;;1.85;1.05;;;;;;;18.12;87.29;97335.75;5019407;28;20566;-65
2024/04/06 08:46:09;;;;;;;;;;;;;;;18.35;83.12;97348.78;5019460;28;20076;-65
2024/04/06 08:48:35;;;;;;;6.30;1.20;;;;;;;18.56;75.41;97340.94;5042374;28;19925;-65
2024/04/06 08:51:07;;;;;;;2.78;1.00;;;;;;;18.68;68.09;97332.19;5019321;28;20045;-65
2024/04/06 08:53:32;;;;;;;2.40;1.02;;;;;;;18.88;67.98;97341.13;5029788;28;20224;-65
2024/04/06 08:56:05;;;;;;;2.50;1.10;;;;;;;18.88;64.57;97330.97;5026587;28;20659;-65
2024/04/06 08:58:32;;;;;;;2.75;1.10;;;;;;;18.82;64.52;97333.00;5015992;28;20053;-67
2024/04/06 09:00:59;;;;;;;3.75;1.10;;;;;;;18.81;64.31;97331.41;5021950;28;20071;-66
2024/04/06 09:03:26;;;;;;;3.45;1.00;;;;;;;18.84;64.08;97319.00;5023904;28;20049;-66
2024/04/06 09:05:52;;;;;;;3.20;1.05;;;;;;;19.04;64.30;97314.97;5023186;28;20103;-66
2024/04/06 09:08:18;;;;;;;2.72;1.25;;;;;;;18.97;63.07;97314.56;5023694;28;20041;-66
2024/04/06 09:10:46;;;;;;;2.72;1.00;;;;;;;19.02;62.33;97303.47;5025765;28;20099;-66
2024/04/06 09:13:12;;;;;;;2.13;0.80;;;;;;;19.10;60.18;97300.03;5023640;28;20049;-66
2024/04/06 09:15:38;;;;;;;2.47;1.02;;;;;;;19.29;61.49;97301.00;5023315;28;20610;-66
2024/04/06 09:18:04;;;;;;;2.50;1.05;;;;;;;19.25;64.56;97300.81;5026604;28;20041;-66
2024/04/06 09:20:29;;;;;;;2.83;0.93;;;;;;;19.19;62.92;97299.28;5023724;28;20060;-66
2024/04/06 09:22:58;;;;;;;3.58;1.10;;;;;;;19.25;64.01;97303.56;5015180;28;20041;-66
2024/04/06 09:25:24;;;;;;;2.60;0.90;;;;;;;19.27;67.50;97304.03;5017119;28;20045;-66
2024/04/06 09:27:50;;;;;;;2.17;1.02;;;;;;;19.24;68.71;97300.00;5014946;28;20087;-66
2024/04/06 09:30:22;;;;;;;5.57;1.10;;;;;;;19.38;69.39;97301.06;5032197;28;20041;-66
2024/04/06 09:32:50;;;;;;;2.30;0.80;;;;;;;19.46;69.97;97300.31;5021592;28;20069;-66
2024/04/06 09:35:15;;;;;;;3.63;1.10;;;;;;;19.45;69.42;97302.25;5032224;28;20044;-66
2024/04/06 09:37:44;;;;;;;2.90;1.10;;;;;;;19.46;66.54;97303.88;5023297;28;20045;-65
2024/04/06 09:40:10;;;;;;;4.82;1.20;;;;;;;19.89;56.37;97296.22;5039941;28;20072;-66
2024/04/06 09:42:37;;;;;;;9.82;1.17;;;;;;;19.94;59.69;97298.03;5026687;28;20830;-66
2024/04/06 09:45:06;;;;;;;1.75;0.90;;;;;;;19.93;61.10;97291.69;5017649;28;20505;-65
2024/04/06 09:47:33;;;;;;;3.05;0.80;;;;;;;19.99;55.81;97292.41;5019300;28;20042;-66
2024/04/06 09:49:59;;;;;;;3.70;0.90;;;;;;;20.09;59.19;97288.59;5020376;28;20096;-66
2024/04/06 09:52:27;;;;;;;2.38;0.90;;;;;;;20.12;59.67;97280.50;5022378;28;20416;-67
2024/04/06 09:54:54;;;;;;;1.10;0.70;;;;;;;20.13;56.08;97284.88;5025670;28;20048;-66
2024/04/06 09:57:21;;;;;;;3.35;1.10;;;;;;;20.31;60.25;97286.88;5024088;28;20069;-66
2024/04/06 09:59:47;;;;;;;2.80;1.00;;;;;;;20.37;62.22;97283.66;5025426;28;20060;-66
2024/04/06 10:02:23;;;;;;;1.77;0.88;;;;;;;20.46;60.46;97283.69;5027940;28;20119;-65
2024/04/06 10:04:56;;;;;;;3.45;0.85;;;;;;;20.46;63.91;97275.44;5022108;28;20459;-59
2024/04/06 10:07:29;;;;;;;7.18;1.20;;;;;;;20.53;63.01;97274.97;5023842;28;20421;-58
2024/04/06 10:10:03;;;;;;;5.47;1.00;;;;;;;20.79;50.61;97271.47;5034884;28;20036;-57
2024/04/06 10:12:45;;;;;;;1.63;0.90;;;;;;;20.98;53.53;97262.94;5029923;28;20042;-59
2024/04/06 10:15:13;;;;;;;2.53;0.90;;;;;;;20.97;50.30;97271.50;5028098;28;20052;-58
2024/04/06 10:17:49;;;;;;;3.75;0.90;;;;;;;21.22;49.11;97272.63;5030655;28;20067;-58
2024/04/06 10:20:33;;;;;;;3.08;0.95;;;;;;;21.43;51.47;97274.72;5025837;28;20057;-58
2024/04/06 10:23:00;;;;;;;2.78;1.02;;;;;;;21.34;50.41;97268.41;5018144;28;20483;-58
2024/04/06 10:25:37;;;;;;;1.48;0.70;;;;;;;21.31;51.62;97267.91;5028533;28;20417;-58
2024/04/06 10:28:04;;;;;;;2.95;1.10;;;;;;;21.26;50.67;97256.28;5029198;28;20037;-58
2024/04/06 10:30:33;;;;;;;2.92;1.13;;;;;;;21.26;49.81;97253.53;5026332;28;20120;-58
2024/04/06 10:32:59;;;;;;;3.88;1.63;;;;;;;21.33;50.93;97258.53;5026719;28;20440;-58
2024/04/06 10:35:27;;;;;;;2.75;1.10;;;;;;;21.55;47.76;97257.50;5023967;28;20387;-58
2024/04/06 10:37:54;;;;;;;3.78;0.80;;;;;;;21.70;46.83;97251.50;5023741;28;21548;-57
2024/04/06 10:40:25;;;;;;;2.58;0.80;;;;;;;21.74;46.76;97251.66;5025258;28;20041;-58
2024/04/06 10:42:51;;;;;;;2.55;0.82;;;;;;;21.73;47.48;97250.03;5024463;28;20041;-60
2024/04/06 10:45:16;;;;;;;3.25;0.82;;;;;;;21.86;46.56;97251.00;5035199;28;20276;-56
2024/04/06 10:47:43;;;;;;;2.75;1.05;;;;;;;22.11;46.58;97248.44;5030060;28;20068;-58
2024/04/06 10:50:09;;;;;;;2.10;0.90;;;;;;;22.26;43.54;97244.31;5016724;28;20045;-58
2024/04/06 10:52:37;;;;;;;2.97;0.98;;;;;;;22.37;44.95;97250.25;5023607;28;20595;-57
2024/04/06 10:55:09;;;;;;;2.47;1.05;;;;;;;22.33;44.12;97241.84;5035226;28;20068;-57
2024/04/06 10:57:39;;;;;;;2.75;0.95;;;;;;;22.34;43.04;97246.22;5030040;28;20034;-56
2024/04/06 11:00:17;;;;;;;1.92;0.70;;;;;;;22.31;43.62;97237.81;5024948;28;20042;-57
2024/04/06 11:02:44;;;;;;;2.65;0.88;;;;;;;22.25;44.67;97244.66;5030824;28;20037;-56
2024/04/06 11:05:10;;;;;;;3.47;0.88;;;;;;;22.61;43.47;97240.56;5023797;28;20045;-58
2024/04/06 11:07:41;;;;;;;3.35;1.00;;;;;;;22.73;43.74;97253.63;5034378;28;20033;-57
2024/04/06 11:10:10;;;;;;;4.10;1.23;;;;;;;22.71;42.96;97242.94;5032417;28;20049;-57
2024/04/06 11:12:37;;;;;;;2.25;0.73;;;;;;;22.78;42.78;97242.41;5034333;28;20056;-57
2024/04/06 11:15:04;;;;;;;3.55;1.35;;;;;;;22.70;44.14;97240.53;5039993;28;20067;-57
2024/04/06 11:17:29;;;;;;;3.90;1.13;;;;;;;22.72;41.80;97232.72;5022855;28;20333;-57
2024/04/06 11:19:56;;;;;;;2.25;0.90;;;;;;;22.99;40.52;97228.59;5037438;28;20045;-57
2024/04/06 11:22:22;;;;;;;2.70;1.25;;;;;;;23.07;41.23;97234.38;5036844;28;20042;-57
2024/04/06 11:24:48;;;;;;;2.35;0.90;;;;;;;23.34;40.23;97226.69;5040120;28;20048;-57
2024/04/06 11:27:24;;;;;;;1.80;0.88;;;;;;;23.20;40.35;97215.91;5032452;28;20560;-57
2024/04/06 11:29:51;;;;;;;2.65;0.90;;;;;;;23.40;40.64;97217.03;5038460;28;20048;-57